sensor_id;sensor_type;location;lat;lon;timestamp;P1;durP1;ratioP1;P2;durP2;ratioP2
2177;SDS011;1095;50.992;6.798;2023-05-10T00:02:17;18.63;;;14.10;;
2177;SDS011;1095;50.992;6.798;2023-05-10T00:04:43;18.98;;;14.23;;
2177;SDS011;1095;50.992;6.798;2023-05-10T00:07:10;19.80;;;14.68;;
2177;SDS011;1095;50.992;6.798;2023-05-10T00:09:36;19.48;;;14.57;;
2177;SDS011;1095;50.992;6.798;2023-05-10T00:12:03;19.65;;;14.75;;
2177;SDS011;1095;50.992;6.798;2023-05-10T00:14:32;19.20;;;14.50;;
2177;SDS011;1095;50.992;6.798;2023-05-10T00:16:58;18.08;;;14.40;;
2177;SDS011;1095;50.992;6.798;2023-05-10T00:19:25;18.05;;;14.20;;
2177;SDS011;1095;50.992;6.798;2023-05-10T00:21:51;19.50;;;14.45;;
2177;SDS011;1095;50.992;6.798;2023-05-10T00:24:18;18.65;;;14.25;;
2177;SDS011;1095;50.992;6.798;2023-05-10T00:26:45;18.77;;;14.23;;
2177;SDS011;1095;50.992;6.798;2023-05-10T00:29:11;19.00;;;14.25;;
2177;SDS011;1095;50.992;6.798;2023-05-10T00:31:39;19.17;;;14.65;;
2177;SDS011;1095;50.992;6.798;2023-05-10T00:34:06;19.52;;;15.32;;
2177;SDS011;1095;50.992;6.798;2023-05-10T00:36:32;23.10;;;15.20;;
2177;SDS011;1095;50.992;6.798;2023-05-10T00:38:59;22.02;;;15.98;;
2177;SDS011;1095;50.992;6.798;2023-05-10T00:41:25;21.42;;;17.00;;
2177;SDS011;1095;50.992;6.798;2023-05-10T00:43:52;21.85;;;17.27;;
2177;SDS011;1095;50.992;6.798;2023-05-10T00:46:19;21.40;;;16.20;;
2177;SDS011;1095;50.992;6.798;2023-05-10T00:48:48;22.65;;;16.33;;
2177;SDS011;1095;50.992;6.798;2023-05-10T00:51:15;21.63;;;16.48;;
2177;SDS011;1095;50.992;6.798;2023-05-10T00:53:42;20.70;;;16.35;;
2177;SDS011;1095;50.992;6.798;2023-05-10T00:56:11;23.55;;;16.08;;
2177;SDS011;1095;50.992;6.798;2023-05-10T00:58:38;21.92;;;16.77;;
2177;SDS011;1095;50.992;6.798;2023-05-10T01:01:05;23.00;;;16.48;;
2177;SDS011;1095;50.992;6.798;2023-05-10T01:03:33;21.70;;;15.63;;
2177;SDS011;1095;50.992;6.798;2023-05-10T01:06:01;21.20;;;15.63;;
2177;SDS011;1095;50.992;6.798;2023-05-10T01:08:28;21.75;;;16.27;;
2177;SDS011;1095;50.992;6.798;2023-05-10T01:10:55;25.92;;;17.77;;
2177;SDS011;1095;50.992;6.798;2023-05-10T01:13:25;22.52;;;16.83;;
2177;SDS011;1095;50.992;6.798;2023-05-10T01:15:58;22.48;;;16.80;;
2177;SDS011;1095;50.992;6.798;2023-05-10T01:18:27;22.30;;;16.25;;
2177;SDS011;1095;50.992;6.798;2023-05-10T01:20:56;25.55;;;17.58;;
2177;SDS011;1095;50.992;6.798;2023-05-10T01:23:42;26.17;;;17.75;;
2177;SDS011;1095;50.992;6.798;2023-05-10T01:26:39;26.83;;;17.02;;
2177;SDS011;1095;50.992;6.798;2023-05-10T01:29:32;24.67;;;17.50;;
2177;SDS011;1095;50.992;6.798;2023-05-10T01:32:36;25.50;;;17.05;;
2177;SDS011;1095;50.992;6.798;2023-05-10T01:35:08;23.02;;;15.45;;
2177;SDS011;1095;50.992;6.798;2023-05-10T01:37:47;20.42;;;14.77;;
2177;SDS011;1095;50.992;6.798;2023-05-10T01:40:19;17.02;;;13.48;;
2177;SDS011;1095;50.992;6.798;2023-05-10T01:42:53;19.10;;;13.75;;
2177;SDS011;1095;50.992;6.798;2023-05-10T01:45:24;17.48;;;12.65;;
2177;SDS011;1095;50.992;6.798;2023-05-10T01:48:04;15.73;;;12.10;;
2177;SDS011;1095;50.992;6.798;2023-05-10T01:50:32;16.48;;;12.25;;
2177;SDS011;1095;50.992;6.798;2023-05-10T01:53:02;18.05;;;11.57;;
2177;SDS011;1095;50.992;6.798;2023-05-10T01:55:30;14.55;;;10.55;;
2177;SDS011;1095;50.992;6.798;2023-05-10T01:58:02;14.82;;;10.88;;
2177;SDS011;1095;50.992;6.798;2023-05-10T02:00:31;12.90;;;9.55;;
2177;SDS011;1095;50.992;6.798;2023-05-10T02:02:59;13.07;;;9.52;;
2177;SDS011;1095;50.992;6.798;2023-05-10T02:05:31;13.05;;;9.35;;
2177;SDS011;1095;50.992;6.798;2023-05-10T02:07:59;13.52;;;9.13;;
2177;SDS011;1095;50.992;6.798;2023-05-10T02:10:27;11.95;;;8.68;;
2177;SDS011;1095;50.992;6.798;2023-05-10T02:12:55;15.13;;;9.88;;
2177;SDS011;1095;50.992;6.798;2023-05-10T02:15:25;11.30;;;9.00;;
2177;SDS011;1095;50.992;6.798;2023-05-10T02:17:54;13.45;;;9.18;;
2177;SDS011;1095;50.992;6.798;2023-05-10T02:20:22;12.05;;;9.27;;
2177;SDS011;1095;50.992;6.798;2023-05-10T02:22:52;15.65;;;8.90;;
2177;SDS011;1095;50.992;6.798;2023-05-10T02:25:20;11.68;;;9.02;;
2177;SDS011;1095;50.992;6.798;2023-05-10T02:27:49;14.95;;;9.63;;
2177;SDS011;1095;50.992;6.798;2023-05-10T02:30:20;15.23;;;9.57;;
2177;SDS011;1095;50.992;6.798;2023-05-10T02:32:47;12.73;;;9.82;;
2177;SDS011;1095;50.992;6.798;2023-05-10T02:35:15;12.05;;;8.90;;
2177;SDS011;1095;50.992;6.798;2023-05-10T02:37:42;13.20;;;9.25;;
2177;SDS011;1095;50.992;6.798;2023-05-10T02:40:13;14.18;;;10.20;;
2177;SDS011;1095;50.992;6.798;2023-05-10T02:42:42;13.30;;;9.95;;
2177;SDS011;1095;50.992;6.798;2023-05-10T02:45:12;14.23;;;9.88;;
2177;SDS011;1095;50.992;6.798;2023-05-10T02:47:40;16.92;;;10.45;;
2177;SDS011;1095;50.992;6.798;2023-05-10T02:50:07;12.68;;;9.32;;
2177;SDS011;1095;50.992;6.798;2023-05-10T02:52:37;15.70;;;9.70;;
2177;SDS011;1095;50.992;6.798;2023-05-10T02:55:06;14.88;;;9.32;;
2177;SDS011;1095;50.992;6.798;2023-05-10T02:57:38;14.10;;;10.35;;
2177;SDS011;1095;50.992;6.798;2023-05-10T03:00:08;15.98;;;10.45;;
2177;SDS011;1095;50.992;6.798;2023-05-10T03:02:35;13.05;;;10.05;;
2177;SDS011;1095;50.992;6.798;2023-05-10T03:05:02;14.15;;;10.45;;
2177;SDS011;1095;50.992;6.798;2023-05-10T03:07:29;15.40;;;10.43;;
2177;SDS011;1095;50.992;6.798;2023-05-10T03:09:55;14.98;;;10.88;;
2177;SDS011;1095;50.992;6.798;2023-05-10T03:12:23;17.08;;;11.07;;
2177;SDS011;1095;50.992;6.798;2023-05-10T03:15:02;18.77;;;11.02;;
2177;SDS011;1095;50.992;6.798;2023-05-10T03:17:44;15.43;;;11.20;;
2177;SDS011;1095;50.992;6.798;2023-05-10T03:20:16;16.77;;;11.20;;
2177;SDS011;1095;50.992;6.798;2023-05-10T03:22:47;16.17;;;12.10;;
2177;SDS011;1095;50.992;6.798;2023-05-10T03:25:17;17.63;;;12.13;;
2177;SDS011;1095;50.992;6.798;2023-05-10T03:27:46;17.10;;;11.70;;
2177;SDS011;1095;50.992;6.798;2023-05-10T03:30:15;19.15;;;13.50;;
2177;SDS011;1095;50.992;6.798;2023-05-10T03:32:43;21.08;;;13.27;;
2177;SDS011;1095;50.992;6.798;2023-05-10T03:35:10;19.88;;;13.77;;
2177;SDS011;1095;50.992;6.798;2023-05-10T03:37:38;20.10;;;14.52;;
2177;SDS011;1095;50.992;6.798;2023-05-10T03:40:05;20.55;;;14.43;;
2177;SDS011;1095;50.992;6.798;2023-05-10T03:42:33;25.23;;;17.90;;
2177;SDS011;1095;50.992;6.798;2023-05-10T03:45:00;27.83;;;20.48;;
2177;SDS011;1095;50.992;6.798;2023-05-10T03:47:28;29.10;;;20.95;;
2177;SDS011;1095;50.992;6.798;2023-05-10T03:49:55;31.25;;;22.98;;
2177;SDS011;1095;50.992;6.798;2023-05-10T03:52:22;29.70;;;22.38;;
2177;SDS011;1095;50.992;6.798;2023-05-10T03:54:48;30.38;;;21.58;;
2177;SDS011;1095;50.992;6.798;2023-05-10T03:57:15;32.22;;;22.50;;
2177;SDS011;1095;50.992;6.798;2023-05-10T03:59:41;30.80;;;21.00;;
2177;SDS011;1095;50.992;6.798;2023-05-10T04:02:08;28.73;;;19.95;;
2177;SDS011;1095;50.992;6.798;2023-05-10T04:04:36;31.60;;;21.05;;
2177;SDS011;1095;50.992;6.798;2023-05-10T04:07:03;31.05;;;21.95;;
2177;SDS011;1095;50.992;6.798;2023-05-10T04:09:29;29.10;;;20.45;;
2177;SDS011;1095;50.992;6.798;2023-05-10T04:11:56;29.58;;;19.45;;
2177;SDS011;1095;50.992;6.798;2023-05-10T04:14:24;32.55;;;20.27;;
2177;SDS011;1095;50.992;6.798;2023-05-10T04:16:51;27.70;;;19.70;;
2177;SDS011;1095;50.992;6.798;2023-05-10T04:19:17;28.67;;;19.35;;
2177;SDS011;1095;50.992;6.798;2023-05-10T04:21:45;25.77;;;18.15;;
2177;SDS011;1095;50.992;6.798;2023-05-10T04:24:12;28.65;;;19.38;;
2177;SDS011;1095;50.992;6.798;2023-05-10T04:26:38;33.20;;;20.25;;
2177;SDS011;1095;50.992;6.798;2023-05-10T04:29:05;28.48;;;20.13;;
2177;SDS011;1095;50.992;6.798;2023-05-10T04:31:32;28.17;;;19.55;;
2177;SDS011;1095;50.992;6.798;2023-05-10T04:33:59;26.80;;;18.90;;
2177;SDS011;1095;50.992;6.798;2023-05-10T04:36:25;26.73;;;19.83;;
2177;SDS011;1095;50.992;6.798;2023-05-10T04:38:54;26.63;;;19.08;;
2177;SDS011;1095;50.992;6.798;2023-05-10T04:41:20;27.25;;;20.10;;
2177;SDS011;1095;50.992;6.798;2023-05-10T04:43:47;28.70;;;20.33;;
2177;SDS011;1095;50.992;6.798;2023-05-10T04:46:14;30.88;;;21.20;;
2177;SDS011;1095;50.992;6.798;2023-05-10T04:48:41;29.20;;;21.15;;
2177;SDS011;1095;50.992;6.798;2023-05-10T04:51:07;26.55;;;20.27;;
2177;SDS011;1095;50.992;6.798;2023-05-10T04:53:34;28.77;;;20.65;;
2177;SDS011;1095;50.992;6.798;2023-05-10T04:56:02;30.75;;;19.77;;
2177;SDS011;1095;50.992;6.798;2023-05-10T04:58:29;28.67;;;20.30;;
2177;SDS011;1095;50.992;6.798;2023-05-10T05:00:55;30.65;;;19.77;;
2177;SDS011;1095;50.992;6.798;2023-05-10T05:03:22;29.80;;;19.65;;
2177;SDS011;1095;50.992;6.798;2023-05-10T05:05:49;31.50;;;20.30;;
2177;SDS011;1095;50.992;6.798;2023-05-10T05:08:15;34.22;;;20.75;;
2177;SDS011;1095;50.992;6.798;2023-05-10T05:10:42;29.95;;;20.67;;
2177;SDS011;1095;50.992;6.798;2023-05-10T05:13:12;30.17;;;19.67;;
2177;SDS011;1095;50.992;6.798;2023-05-10T05:15:38;28.95;;;20.42;;
2177;SDS011;1095;50.992;6.798;2023-05-10T05:18:05;27.95;;;18.92;;
2177;SDS011;1095;50.992;6.798;2023-05-10T05:20:32;27.50;;;17.58;;
2177;SDS011;1095;50.992;6.798;2023-05-10T05:22:59;26.85;;;18.30;;
2177;SDS011;1095;50.992;6.798;2023-05-10T05:25:26;32.35;;;19.35;;
2177;SDS011;1095;50.992;6.798;2023-05-10T05:27:52;31.88;;;18.77;;
2177;SDS011;1095;50.992;6.798;2023-05-10T05:30:20;30.27;;;18.40;;
2177;SDS011;1095;50.992;6.798;2023-05-10T05:32:47;27.70;;;17.65;;
2177;SDS011;1095;50.992;6.798;2023-05-10T05:35:14;36.13;;;17.70;;
2177;SDS011;1095;50.992;6.798;2023-05-10T05:37:40;30.88;;;17.15;;
2177;SDS011;1095;50.992;6.798;2023-05-10T05:40:07;31.33;;;18.08;;
2177;SDS011;1095;50.992;6.798;2023-05-10T05:42:38;25.98;;;17.95;;
2177;SDS011;1095;50.992;6.798;2023-05-10T05:45:05;26.65;;;16.73;;
2177;SDS011;1095;50.992;6.798;2023-05-10T05:47:35;24.92;;;16.02;;
2177;SDS011;1095;50.992;6.798;2023-05-10T05:50:01;26.58;;;16.98;;
2177;SDS011;1095;50.992;6.798;2023-05-10T05:52:28;24.27;;;16.65;;
2177;SDS011;1095;50.992;6.798;2023-05-10T05:54:55;26.13;;;16.73;;
2177;SDS011;1095;50.992;6.798;2023-05-10T05:57:24;25.98;;;16.10;;
2177;SDS011;1095;50.992;6.798;2023-05-10T05:59:51;22.08;;;15.07;;
2177;SDS011;1095;50.992;6.798;2023-05-10T06:02:18;22.02;;;16.15;;
2177;SDS011;1095;50.992;6.798;2023-05-10T06:04:46;28.23;;;16.27;;
2177;SDS011;1095;50.992;6.798;2023-05-10T06:07:12;28.13;;;17.30;;
2177;SDS011;1095;50.992;6.798;2023-05-10T06:09:39;28.80;;;17.88;;
2177;SDS011;1095;50.992;6.798;2023-05-10T06:12:06;29.13;;;16.80;;
2177;SDS011;1095;50.992;6.798;2023-05-10T06:14:32;25.25;;;16.70;;
2177;SDS011;1095;50.992;6.798;2023-05-10T06:16:59;27.33;;;18.20;;
2177;SDS011;1095;50.992;6.798;2023-05-10T06:19:25;29.00;;;18.10;;
2177;SDS011;1095;50.992;6.798;2023-05-10T06:21:53;31.65;;;18.70;;
2177;SDS011;1095;50.992;6.798;2023-05-10T06:24:21;32.92;;;19.00;;
2177;SDS011;1095;50.992;6.798;2023-05-10T06:26:47;28.52;;;18.25;;
2177;SDS011;1095;50.992;6.798;2023-05-10T06:29:15;40.65;;;21.73;;
2177;SDS011;1095;50.992;6.798;2023-05-10T06:31:44;35.03;;;21.48;;
2177;SDS011;1095;50.992;6.798;2023-05-10T06:34:11;34.95;;;20.38;;
2177;SDS011;1095;50.992;6.798;2023-05-10T06:36:38;32.28;;;20.73;;
2177;SDS011;1095;50.992;6.798;2023-05-10T06:39:06;36.45;;;20.05;;
2177;SDS011;1095;50.992;6.798;2023-05-10T06:41:33;38.35;;;22.52;;
2177;SDS011;1095;50.992;6.798;2023-05-10T06:43:59;64.15;;;23.58;;
2177;SDS011;1095;50.992;6.798;2023-05-10T06:46:26;43.03;;;21.55;;
2177;SDS011;1095;50.992;6.798;2023-05-10T06:48:53;37.15;;;21.65;;
2177;SDS011;1095;50.992;6.798;2023-05-10T06:51:19;36.78;;;20.73;;
2177;SDS011;1095;50.992;6.798;2023-05-10T06:53:47;34.95;;;21.63;;
2177;SDS011;1095;50.992;6.798;2023-05-10T06:56:23;39.58;;;21.67;;
2177;SDS011;1095;50.992;6.798;2023-05-10T06:58:55;41.10;;;23.20;;
2177;SDS011;1095;50.992;6.798;2023-05-10T07:01:23;35.35;;;20.35;;
2177;SDS011;1095;50.992;6.798;2023-05-10T07:03:53;34.50;;;20.33;;
2177;SDS011;1095;50.992;6.798;2023-05-10T07:06:20;31.08;;;19.65;;
2177;SDS011;1095;50.992;6.798;2023-05-10T07:08:47;35.95;;;21.05;;
2177;SDS011;1095;50.992;6.798;2023-05-10T07:11:13;32.17;;;20.67;;
2177;SDS011;1095;50.992;6.798;2023-05-10T07:13:41;35.33;;;20.52;;
2177;SDS011;1095;50.992;6.798;2023-05-10T07:16:09;36.50;;;20.20;;
2177;SDS011;1095;50.992;6.798;2023-05-10T07:18:36;30.10;;;19.55;;
2177;SDS011;1095;50.992;6.798;2023-05-10T07:21:02;29.88;;;19.90;;
2177;SDS011;1095;50.992;6.798;2023-05-10T07:23:33;31.77;;;20.58;;
2177;SDS011;1095;50.992;6.798;2023-05-10T07:26:10;31.70;;;19.58;;
2177;SDS011;1095;50.992;6.798;2023-05-10T07:28:37;33.65;;;20.58;;
2177;SDS011;1095;50.992;6.798;2023-05-10T07:31:05;34.53;;;20.75;;
2177;SDS011;1095;50.992;6.798;2023-05-10T07:33:32;37.10;;;20.05;;
2177;SDS011;1095;50.992;6.798;2023-05-10T07:35:58;34.63;;;20.33;;
2177;SDS011;1095;50.992;6.798;2023-05-10T07:38:25;32.92;;;21.17;;
2177;SDS011;1095;50.992;6.798;2023-05-10T07:40:51;34.35;;;20.60;;
2177;SDS011;1095;50.992;6.798;2023-05-10T07:43:18;36.35;;;20.58;;
2177;SDS011;1095;50.992;6.798;2023-05-10T07:45:45;40.28;;;22.70;;
2177;SDS011;1095;50.992;6.798;2023-05-10T07:48:13;39.10;;;23.17;;
2177;SDS011;1095;50.992;6.798;2023-05-10T07:50:39;40.20;;;22.63;;
2177;SDS011;1095;50.992;6.798;2023-05-10T07:53:06;34.72;;;21.55;;
2177;SDS011;1095;50.992;6.798;2023-05-10T07:55:32;34.75;;;19.98;;
2177;SDS011;1095;50.992;6.798;2023-05-10T07:57:59;29.60;;;19.67;;
2177;SDS011;1095;50.992;6.798;2023-05-10T08:00:27;30.25;;;19.00;;
2177;SDS011;1095;50.992;6.798;2023-05-10T08:02:53;26.33;;;18.42;;
2177;SDS011;1095;50.992;6.798;2023-05-10T08:05:21;28.95;;;18.63;;
2177;SDS011;1095;50.992;6.798;2023-05-10T08:07:48;28.98;;;16.15;;
2177;SDS011;1095;50.992;6.798;2023-05-10T08:10:14;29.40;;;17.10;;
2177;SDS011;1095;50.992;6.798;2023-05-10T08:12:41;27.50;;;17.45;;
2177;SDS011;1095;50.992;6.798;2023-05-10T08:15:08;27.33;;;17.45;;
2177;SDS011;1095;50.992;6.798;2023-05-10T08:17:36;26.55;;;16.80;;
2177;SDS011;1095;50.992;6.798;2023-05-10T08:20:02;26.08;;;17.70;;
2177;SDS011;1095;50.992;6.798;2023-05-10T08:22:31;28.23;;;18.10;;
2177;SDS011;1095;50.992;6.798;2023-05-10T08:24:57;31.20;;;19.90;;
2177;SDS011;1095;50.992;6.798;2023-05-10T08:27:24;29.85;;;19.55;;
2177;SDS011;1095;50.992;6.798;2023-05-10T08:29:51;32.10;;;19.40;;
2177;SDS011;1095;50.992;6.798;2023-05-10T08:32:17;31.55;;;20.33;;
2177;SDS011;1095;50.992;6.798;2023-05-10T08:34:44;36.45;;;20.35;;
2177;SDS011;1095;50.992;6.798;2023-05-10T08:37:10;35.30;;;20.73;;
2177;SDS011;1095;50.992;6.798;2023-05-10T08:39:39;40.25;;;23.75;;
2177;SDS011;1095;50.992;6.798;2023-05-10T08:42:06;43.80;;;23.48;;
2177;SDS011;1095;50.992;6.798;2023-05-10T08:44:34;48.67;;;24.80;;
2177;SDS011;1095;50.992;6.798;2023-05-10T08:47:04;42.50;;;24.00;;
2177;SDS011;1095;50.992;6.798;2023-05-10T08:49:32;44.65;;;25.58;;
2177;SDS011;1095;50.992;6.798;2023-05-10T08:52:00;46.70;;;25.88;;
2177;SDS011;1095;50.992;6.798;2023-05-10T08:54:31;44.95;;;26.35;;
2177;SDS011;1095;50.992;6.798;2023-05-10T08:56:59;50.25;;;26.10;;
2177;SDS011;1095;50.992;6.798;2023-05-10T08:59:26;45.55;;;24.23;;
2177;SDS011;1095;50.992;6.798;2023-05-10T09:01:53;44.85;;;24.70;;
2177;SDS011;1095;50.992;6.798;2023-05-10T09:04:23;46.08;;;24.83;;
2177;SDS011;1095;50.992;6.798;2023-05-10T09:06:50;43.97;;;23.92;;
2177;SDS011;1095;50.992;6.798;2023-05-10T09:09:17;46.38;;;25.50;;
2177;SDS011;1095;50.992;6.798;2023-05-10T09:11:44;43.47;;;23.33;;
2177;SDS011;1095;50.992;6.798;2023-05-10T09:14:13;38.63;;;22.83;;
2177;SDS011;1095;50.992;6.798;2023-05-10T09:16:42;37.88;;;23.52;;
2177;SDS011;1095;50.992;6.798;2023-05-10T09:19:09;36.53;;;21.48;;
2177;SDS011;1095;50.992;6.798;2023-05-10T09:21:35;35.08;;;22.70;;
2177;SDS011;1095;50.992;6.798;2023-05-10T09:24:03;33.22;;;20.42;;
2177;SDS011;1095;50.992;6.798;2023-05-10T09:26:31;23.70;;;17.05;;
2177;SDS011;1095;50.992;6.798;2023-05-10T09:28:59;26.33;;;16.45;;
2177;SDS011;1095;50.992;6.798;2023-05-10T09:34:11;26.67;;;16.95;;
2177;SDS011;1095;50.992;6.798;2023-05-10T09:36:49;24.85;;;17.00;;
2177;SDS011;1095;50.992;6.798;2023-05-10T09:39:21;24.42;;;16.75;;
2177;SDS011;1095;50.992;6.798;2023-05-10T09:41:57;23.60;;;16.08;;
2177;SDS011;1095;50.992;6.798;2023-05-10T09:44:25;35.83;;;17.70;;
2177;SDS011;1095;50.992;6.798;2023-05-10T09:46:53;65.25;;;20.13;;
2177;SDS011;1095;50.992;6.798;2023-05-10T09:49:20;24.48;;;16.63;;
2177;SDS011;1095;50.992;6.798;2023-05-10T09:51:47;24.98;;;16.85;;
2177;SDS011;1095;50.992;6.798;2023-05-10T09:54:14;27.67;;;16.63;;
2177;SDS011;1095;50.992;6.798;2023-05-10T09:56:42;25.95;;;17.23;;
2177;SDS011;1095;50.992;6.798;2023-05-10T09:59:09;23.05;;;16.67;;
2177;SDS011;1095;50.992;6.798;2023-05-10T10:01:37;21.77;;;15.38;;
2177;SDS011;1095;50.992;6.798;2023-05-10T10:04:07;26.05;;;16.50;;
2177;SDS011;1095;50.992;6.798;2023-05-10T10:06:35;23.48;;;16.23;;
2177;SDS011;1095;50.992;6.798;2023-05-10T10:09:03;20.20;;;15.15;;
2177;SDS011;1095;50.992;6.798;2023-05-10T10:11:31;23.90;;;16.85;;
2177;SDS011;1095;50.992;6.798;2023-05-10T10:13:57;22.63;;;15.63;;
2177;SDS011;1095;50.992;6.798;2023-05-10T10:16:24;25.95;;;17.15;;
2177;SDS011;1095;50.992;6.798;2023-05-10T10:18:51;26.05;;;16.33;;
2177;SDS011;1095;50.992;6.798;2023-05-10T10:21:19;24.45;;;16.33;;
2177;SDS011;1095;50.992;6.798;2023-05-10T10:23:46;20.83;;;14.75;;
2177;SDS011;1095;50.992;6.798;2023-05-10T10:26:12;22.50;;;14.80;;
2177;SDS011;1095;50.992;6.798;2023-05-10T10:28:42;19.05;;;12.70;;
2177;SDS011;1095;50.992;6.798;2023-05-10T10:31:17;16.60;;;11.95;;
2177;SDS011;1095;50.992;6.798;2023-05-10T10:33:56;23.90;;;13.20;;
2177;SDS011;1095;50.992;6.798;2023-05-10T10:36:28;19.67;;;13.73;;
2177;SDS011;1095;50.992;6.798;2023-05-10T10:38:58;16.98;;;12.50;;
2177;SDS011;1095;50.992;6.798;2023-05-10T10:41:30;19.25;;;11.90;;
2177;SDS011;1095;50.992;6.798;2023-05-10T10:47:06;18.15;;;12.60;;
2177;SDS011;1095;50.992;6.798;2023-05-10T10:49:42;46.00;;;15.35;;
2177;SDS011;1095;50.992;6.798;2023-05-10T10:52:18;56.13;;;14.40;;
2177;SDS011;1095;50.992;6.798;2023-05-10T10:54:51;22.48;;;11.82;;
2177;SDS011;1095;50.992;6.798;2023-05-10T10:57:20;20.15;;;10.73;;
2177;SDS011;1095;50.992;6.798;2023-05-10T10:59:47;14.38;;;10.52;;
2177;SDS011;1095;50.992;6.798;2023-05-10T11:02:33;41.58;;;13.20;;
2177;SDS011;1095;50.992;6.798;2023-05-10T11:08:11;16.55;;;10.65;;
2177;SDS011;1095;50.992;6.798;2023-05-10T11:10:48;13.00;;;9.77;;
2177;SDS011;1095;50.992;6.798;2023-05-10T11:13:21;14.38;;;10.35;;
2177;SDS011;1095;50.992;6.798;2023-05-10T11:15:56;11.43;;;9.05;;
2177;SDS011;1095;50.992;6.798;2023-05-10T11:18:24;12.52;;;8.80;;
2177;SDS011;1095;50.992;6.798;2023-05-10T11:20:52;10.23;;;8.45;;
2177;SDS011;1095;50.992;6.798;2023-05-10T11:23:28;10.77;;;8.30;;
2177;SDS011;1095;50.992;6.798;2023-05-10T11:25:56;11.57;;;7.72;;
2177;SDS011;1095;50.992;6.798;2023-05-10T11:28:22;12.73;;;8.18;;
2177;SDS011;1095;50.992;6.798;2023-05-10T11:30:49;13.48;;;7.55;;
2177;SDS011;1095;50.992;6.798;2023-05-10T11:33:16;8.00;;;6.30;;
2177;SDS011;1095;50.992;6.798;2023-05-10T11:35:44;7.25;;;5.97;;
2177;SDS011;1095;50.992;6.798;2023-05-10T11:38:11;7.68;;;5.93;;
2177;SDS011;1095;50.992;6.798;2023-05-10T11:40:40;7.38;;;5.90;;
2177;SDS011;1095;50.992;6.798;2023-05-10T11:43:08;6.13;;;4.85;;
2177;SDS011;1095;50.992;6.798;2023-05-10T11:45:36;6.57;;;4.95;;
2177;SDS011;1095;50.992;6.798;2023-05-10T11:48:03;7.32;;;5.20;;
2177;SDS011;1095;50.992;6.798;2023-05-10T11:50:30;7.45;;;5.30;;
2177;SDS011;1095;50.992;6.798;2023-05-10T11:53:06;7.47;;;5.53;;
2177;SDS011;1095;50.992;6.798;2023-05-10T11:55:33;8.50;;;5.43;;
2177;SDS011;1095;50.992;6.798;2023-05-10T11:58:01;7.38;;;4.90;;
2177;SDS011;1095;50.992;6.798;2023-05-10T12:00:29;7.20;;;4.22;;
2177;SDS011;1095;50.992;6.798;2023-05-10T12:02:56;5.70;;;4.70;;
2177;SDS011;1095;50.992;6.798;2023-05-10T12:05:23;16.15;;;5.85;;
2177;SDS011;1095;50.992;6.798;2023-05-10T12:07:50;15.35;;;5.88;;
2177;SDS011;1095;50.992;6.798;2023-05-10T12:10:17;6.80;;;4.95;;
2177;SDS011;1095;50.992;6.798;2023-05-10T12:12:52;5.30;;;4.40;;
2177;SDS011;1095;50.992;6.798;2023-05-10T12:15:21;6.57;;;4.35;;
2177;SDS011;1095;50.992;6.798;2023-05-10T12:17:48;5.10;;;3.97;;
2177;SDS011;1095;50.992;6.798;2023-05-10T12:20:16;6.15;;;5.05;;
2177;SDS011;1095;50.992;6.798;2023-05-10T12:22:44;7.80;;;5.13;;
2177;SDS011;1095;50.992;6.798;2023-05-10T12:25:12;6.65;;;5.00;;
2177;SDS011;1095;50.992;6.798;2023-05-10T12:27:39;7.07;;;4.75;;
2177;SDS011;1095;50.992;6.798;2023-05-10T12:30:06;5.53;;;4.45;;
2177;SDS011;1095;50.992;6.798;2023-05-10T12:32:41;5.32;;;4.20;;
2177;SDS011;1095;50.992;6.798;2023-05-10T12:35:08;6.75;;;5.15;;
2177;SDS011;1095;50.992;6.798;2023-05-10T12:37:35;7.40;;;5.30;;
2177;SDS011;1095;50.992;6.798;2023-05-10T12:40:05;7.13;;;4.65;;
2177;SDS011;1095;50.992;6.798;2023-05-10T12:42:34;7.65;;;5.18;;
2177;SDS011;1095;50.992;6.798;2023-05-10T12:45:01;6.15;;;5.07;;
2177;SDS011;1095;50.992;6.798;2023-05-10T12:47:28;12.50;;;5.78;;
2177;SDS011;1095;50.992;6.798;2023-05-10T12:49:56;6.78;;;5.45;;
2177;SDS011;1095;50.992;6.798;2023-05-10T12:52:23;23.60;;;7.32;;
2177;SDS011;1095;50.992;6.798;2023-05-10T12:54:51;9.82;;;5.25;;
2177;SDS011;1095;50.992;6.798;2023-05-10T12:57:17;7.93;;;4.97;;
2177;SDS011;1095;50.992;6.798;2023-05-10T12:59:44;8.82;;;5.05;;
2177;SDS011;1095;50.992;6.798;2023-05-10T13:02:11;32.72;;;7.60;;
2177;SDS011;1095;50.992;6.798;2023-05-10T13:04:38;7.65;;;5.00;;
2177;SDS011;1095;50.992;6.798;2023-05-10T13:07:06;7.35;;;5.20;;
2177;SDS011;1095;50.992;6.798;2023-05-10T13:09:32;10.48;;;5.18;;
2177;SDS011;1095;50.992;6.798;2023-05-10T13:11:59;7.55;;;5.30;;
2177;SDS011;1095;50.992;6.798;2023-05-10T13:14:26;6.05;;;5.20;;
2177;SDS011;1095;50.992;6.798;2023-05-10T13:16:53;5.07;;;4.20;;
2177;SDS011;1095;50.992;6.798;2023-05-10T13:19:19;5.57;;;4.15;;
2177;SDS011;1095;50.992;6.798;2023-05-10T13:21:46;5.25;;;4.03;;
2177;SDS011;1095;50.992;6.798;2023-05-10T13:24:14;5.63;;;4.57;;
2177;SDS011;1095;50.992;6.798;2023-05-10T13:29:09;5.32;;;4.10;;
2177;SDS011;1095;50.992;6.798;2023-05-10T13:31:36;6.95;;;4.35;;
2177;SDS011;1095;50.992;6.798;2023-05-10T13:34:03;4.35;;;3.65;;
2177;SDS011;1095;50.992;6.798;2023-05-10T13:36:29;3.80;;;3.33;;
2177;SDS011;1095;50.992;6.798;2023-05-10T13:38:56;4.50;;;3.78;;
2177;SDS011;1095;50.992;6.798;2023-05-10T13:41:24;3.90;;;3.20;;
2177;SDS011;1095;50.992;6.798;2023-05-10T13:43:51;4.75;;;3.30;;
2177;SDS011;1095;50.992;6.798;2023-05-10T13:46:18;5.18;;;3.58;;
2177;SDS011;1095;50.992;6.798;2023-05-10T13:48:44;4.72;;;2.90;;
2177;SDS011;1095;50.992;6.798;2023-05-10T13:51:13;3.63;;;3.10;;
2177;SDS011;1095;50.992;6.798;2023-05-10T13:53:40;4.20;;;3.20;;
2177;SDS011;1095;50.992;6.798;2023-05-10T13:56:07;7.45;;;3.40;;
2177;SDS011;1095;50.992;6.798;2023-05-10T13:58:35;7.63;;;3.95;;
2177;SDS011;1095;50.992;6.798;2023-05-10T14:01:01;5.32;;;3.70;;
2177;SDS011;1095;50.992;6.798;2023-05-10T14:03:29;19.88;;;4.68;;
2177;SDS011;1095;50.992;6.798;2023-05-10T14:05:56;6.32;;;3.75;;
2177;SDS011;1095;50.992;6.798;2023-05-10T14:08:23;4.22;;;3.00;;
2177;SDS011;1095;50.992;6.798;2023-05-10T14:10:52;4.75;;;3.03;;
2177;SDS011;1095;50.992;6.798;2023-05-10T14:13:18;15.75;;;4.40;;
2177;SDS011;1095;50.992;6.798;2023-05-10T14:15:46;5.50;;;3.50;;
2177;SDS011;1095;50.992;6.798;2023-05-10T14:18:13;3.58;;;3.22;;
2177;SDS011;1095;50.992;6.798;2023-05-10T14:20:41;7.00;;;3.70;;
2177;SDS011;1095;50.992;6.798;2023-05-10T14:23:08;10.32;;;3.25;;
2177;SDS011;1095;50.992;6.798;2023-05-10T14:25:35;6.85;;;3.95;;
2177;SDS011;1095;50.992;6.798;2023-05-10T14:28:03;5.32;;;4.03;;
2177;SDS011;1095;50.992;6.798;2023-05-10T14:30:30;4.20;;;3.42;;
2177;SDS011;1095;50.992;6.798;2023-05-10T14:32:59;6.72;;;4.03;;
2177;SDS011;1095;50.992;6.798;2023-05-10T14:35:27;5.30;;;3.63;;
2177;SDS011;1095;50.992;6.798;2023-05-10T14:37:55;4.07;;;3.47;;
2177;SDS011;1095;50.992;6.798;2023-05-10T14:40:22;4.82;;;3.47;;
2177;SDS011;1095;50.992;6.798;2023-05-10T14:42:50;6.75;;;3.75;;
2177;SDS011;1095;50.992;6.798;2023-05-10T14:45:18;5.20;;;3.40;;
2177;SDS011;1095;50.992;6.798;2023-05-10T14:47:46;5.25;;;3.80;;
2177;SDS011;1095;50.992;6.798;2023-05-10T14:50:17;6.10;;;3.90;;
2177;SDS011;1095;50.992;6.798;2023-05-10T14:52:47;6.28;;;4.00;;
2177;SDS011;1095;50.992;6.798;2023-05-10T14:55:15;5.38;;;4.10;;
2177;SDS011;1095;50.992;6.798;2023-05-10T14:57:42;5.80;;;3.95;;
2177;SDS011;1095;50.992;6.798;2023-05-10T15:00:12;5.07;;;4.10;;
2177;SDS011;1095;50.992;6.798;2023-05-10T15:02:41;5.38;;;3.95;;
2177;SDS011;1095;50.992;6.798;2023-05-10T15:05:08;5.72;;;3.90;;
2177;SDS011;1095;50.992;6.798;2023-05-10T15:07:36;3.97;;;3.22;;
2177;SDS011;1095;50.992;6.798;2023-05-10T15:10:08;4.82;;;3.90;;
2177;SDS011;1095;50.992;6.798;2023-05-10T15:12:35;6.32;;;3.70;;
2177;SDS011;1095;50.992;6.798;2023-05-10T15:15:02;5.78;;;4.07;;